createdAt,value
2022-07-26T01:23:31.866Z,65.90
2022-07-26T01:30:37.564Z,66.50
2022-07-26T01:41:03.562Z,67.40
2022-07-26T01:44:28.290Z,67.50
2022-07-26T01:47:18.225Z,67.30
2022-07-26T02:00:36.235Z,68.50
2022-07-26T04:41:06.425Z,80.10
2022-07-26T08:10:02.647Z,64.10
2022-07-26T08:14:47.405Z,63.00
2022-07-26T08:19:19.098Z,58.70
2022-07-26T08:22:24.867Z,59.50
2022-07-26T08:25:10.788Z,60.00
2022-07-26T08:28:04.114Z,58.70
2022-07-26T08:30:50.250Z,57.50
2022-07-26T08:33:35.681Z,56.80
2022-07-26T08:37:15.964Z,57.10
2022-07-26T08:40:26.815Z,58.20
2022-07-26T08:43:12.459Z,56.60
2022-07-26T08:46:02.246Z,57.00
2022-07-26T08:48:48.322Z,57.30
2022-07-26T08:51:34.241Z,57.00
2022-07-26T08:54:21.126Z,57.20
2022-07-26T08:57:06.750Z,54.80
2022-07-26T09:00:14.420Z,55.70
2022-07-26T09:03:03.148Z,54.40
2022-07-26T09:05:49.294Z,56.00
2022-07-26T09:11:36.422Z,53.50
2022-07-26T09:14:22.237Z,52.00
2022-07-26T09:17:38.751Z,53.50
2022-07-26T09:20:49.939Z,52.30
2022-07-26T09:23:42.719Z,50.40
2022-07-26T09:26:28.814Z,52.50
2022-07-26T09:33:53.942Z,51.30
2022-07-26T09:36:53.256Z,50.60
2022-07-26T09:40:19.656Z,50.70
2022-07-26T09:43:10.069Z,50.20
2022-07-26T09:46:36.068Z,49.10
2022-07-26T09:49:40.620Z,49.30
2022-07-26T09:52:58.429Z,50.30
2022-07-26T09:55:47.207Z,49.60
2022-07-26T09:58:33.747Z,49.80
2022-07-26T10:01:19.566Z,49.90
2022-07-26T10:04:05.635Z,50.50
2022-07-26T10:06:51.927Z,49.40
2022-07-26T10:09:49.043Z,47.90
2022-07-26T10:12:36.029Z,50.40
2022-07-26T10:15:40.866Z,49.30
2022-07-26T10:19:02.739Z,49.00
2022-07-26T10:22:34.479Z,49.90
2022-07-26T10:25:20.064Z,49.90
2022-07-26T10:28:11.997Z,49.90
2022-07-26T10:31:25.236Z,48.70
2022-07-26T10:34:11.118Z,49.10
2022-07-26T10:37:41.996Z,46.90
2022-07-26T10:40:30.361Z,50.00
2022-07-26T10:46:26.984Z,50.90
2022-07-26T10:49:19.281Z,50.30
2022-07-26T10:55:57.454Z,52.00
2022-07-26T10:58:43.903Z,48.70
2022-07-26T11:01:43.210Z,47.40
2022-07-26T11:04:28.826Z,49.30
2022-07-26T11:07:14.390Z,46.70
2022-07-26T11:10:01.022Z,46.40
2022-07-26T11:12:46.408Z,46.40
2022-07-26T11:15:35.633Z,47.20
2022-07-26T11:18:27.841Z,47.90
2022-07-26T11:21:18.024Z,45.40
2022-07-26T11:24:04.176Z,45.70
2022-07-26T11:26:50.173Z,44.40
2022-07-26T11:29:38.603Z,45.30
2022-07-26T11:32:26.705Z,43.90
2022-07-26T11:35:12.715Z,41.80
2022-07-26T11:38:11.511Z,43.60
2022-07-26T11:40:58.114Z,43.80
2022-07-26T11:43:43.747Z,42.50
2022-07-26T11:46:35.459Z,43.20
2022-07-26T11:49:41.496Z,42.40
2022-07-26T11:52:31.759Z,43.20
2022-07-26T11:55:26.521Z,41.60
2022-07-26T11:58:12.213Z,40.00
2022-07-26T12:00:57.782Z,40.40
2022-07-26T12:03:45.757Z,40.10
2022-07-26T12:06:38.656Z,40.70
2022-07-26T12:09:34.186Z,39.60
2022-07-26T12:12:21.993Z,40.60
2022-07-26T12:15:08.009Z,40.10
2022-07-26T12:18:00.311Z,42.40
2022-07-26T12:21:07.973Z,41.10
2022-07-26T12:23:54.187Z,39.00
2022-07-26T12:26:40.799Z,41.90
2022-07-26T12:29:34.165Z,40.40
2022-07-26T12:32:30.545Z,37.70
2022-07-26T12:35:25.283Z,38.40
2022-07-26T12:38:10.711Z,37.70
2022-07-26T12:40:56.263Z,37.50
2022-07-26T12:43:41.791Z,38.20
2022-07-26T12:46:27.751Z,40.40
2022-07-26T12:49:13.354Z,39.90
2022-07-26T12:51:59.096Z,37.40
2022-07-26T12:54:46.736Z,37.90
2022-07-26T12:57:33.488Z,38.50
2022-07-26T13:00:22.997Z,37.20
2022-07-26T13:03:08.645Z,38.60
2022-07-26T13:05:54.257Z,37.70
2022-07-26T13:08:39.935Z,38.00
2022-07-26T13:11:25.510Z,39.90
2022-07-26T13:14:11.815Z,38.90
2022-07-26T13:17:01.095Z,38.70
2022-07-26T13:19:46.994Z,38.80
2022-07-26T13:22:32.888Z,39.70
2022-07-26T13:25:18.859Z,39.50
2022-07-26T13:28:05.862Z,39.50
2022-07-26T13:30:51.471Z,38.80
2022-07-26T13:33:39.237Z,38.70
2022-07-26T13:36:25.259Z,39.10
2022-07-26T13:39:10.902Z,39.90
2022-07-26T13:41:56.687Z,39.40
2022-07-26T13:44:42.492Z,39.40
2022-07-26T13:47:54.090Z,40.10
2022-07-26T13:50:40.552Z,40.20
2022-07-26T13:53:26.285Z,39.10
2022-07-26T13:57:02.889Z,39.80
2022-07-26T14:00:40.015Z,40.40
2022-07-26T14:04:15.526Z,38.90
2022-07-26T14:07:01.916Z,39.90
2022-07-26T14:10:13.075Z,40.50
2022-07-26T14:13:38.391Z,40.80
2022-07-26T14:16:49.732Z,41.20
2022-07-26T14:19:48.109Z,41.60
2022-07-26T14:22:34.635Z,40.60
2022-07-26T14:30:00.903Z,40.60
2022-07-26T14:32:47.877Z,40.80
2022-07-26T14:35:59.316Z,40.80
2022-07-26T14:38:45.160Z,40.80
2022-07-26T14:42:22.127Z,41.80
2022-07-26T14:45:10.001Z,38.90
2022-07-26T14:47:56.701Z,40.40
2022-07-26T14:51:13.617Z,40.90
2022-07-26T14:53:59.548Z,41.40
2022-07-26T14:56:45.384Z,40.40
2022-07-26T14:59:31.011Z,37.60
2022-07-26T15:02:44.067Z,40.20
2022-07-26T15:05:30.430Z,39.20
2022-07-26T15:08:41.262Z,38.50
2022-07-26T15:11:27.180Z,40.00
2022-07-26T15:14:42.206Z,39.80
2022-07-26T15:17:54.124Z,39.40
2022-07-26T15:20:48.414Z,41.10
2022-07-26T15:24:10.485Z,40.60
2022-07-26T15:26:59.787Z,41.10
2022-07-26T15:29:47.938Z,39.20
2022-07-26T15:32:35.771Z,39.90
2022-07-26T15:35:21.817Z,39.80
2022-07-26T15:38:52.204Z,38.10
2022-07-26T15:42:31.045Z,38.80
2022-07-26T15:45:44.277Z,39.60
2022-07-26T15:48:31.065Z,42.50
2022-07-26T15:51:17.202Z,39.80
2022-07-26T15:54:04.742Z,38.20
2022-07-26T15:56:50.341Z,39.30
2022-07-26T15:59:36.103Z,38.20
2022-07-26T16:02:21.954Z,39.50
2022-07-26T16:05:09.232Z,42.30
2022-07-26T16:07:54.922Z,42.00
2022-07-26T16:10:40.604Z,41.00
2022-07-26T16:13:26.303Z,41.70
2022-07-26T16:16:12.554Z,41.20
2022-07-26T16:18:58.711Z,41.20
2022-07-26T16:21:45.203Z,40.00
2022-07-26T16:24:31.711Z,39.70
2022-07-26T16:27:17.486Z,41.00
2022-07-26T16:30:03.609Z,39.40
2022-07-26T16:32:54.721Z,39.30
2022-07-26T16:36:47.555Z,39.60
2022-07-26T16:39:33.882Z,39.90
2022-07-26T16:42:22.420Z,38.70
2022-07-26T16:45:09.135Z,39.50
2022-07-26T16:47:59.826Z,41.10
2022-07-26T16:50:45.971Z,41.50
2022-07-26T16:53:31.689Z,41.40
2022-07-26T16:56:42.566Z,41.80
2022-07-26T16:59:31.015Z,42.30
2022-07-26T17:02:16.942Z,40.40
2022-07-26T17:05:03.718Z,41.10
2022-07-26T17:07:49.174Z,42.00
2022-07-26T17:10:34.712Z,42.10
2022-07-26T17:13:20.467Z,42.60
2022-07-26T17:16:06.183Z,42.60
2022-07-26T17:18:53.865Z,42.70
2022-07-26T17:21:39.959Z,42.60
2022-07-26T17:24:25.625Z,42.30
2022-07-26T17:27:11.160Z,43.00
2022-07-26T17:29:57.294Z,42.90
2022-07-26T17:32:42.984Z,42.30
2022-07-26T17:35:28.592Z,43.40
2022-07-26T17:38:14.315Z,43.70
2022-07-26T17:41:00.785Z,43.80
2022-07-26T17:43:47.419Z,44.80
2022-07-26T17:46:33.214Z,45.20
2022-07-26T17:49:19.083Z,43.80
2022-07-26T17:52:04.963Z,44.40
2022-07-26T17:54:53.907Z,43.90
2022-07-26T17:57:40.018Z,43.70
2022-07-26T18:00:28.867Z,46.70
2022-07-26T18:03:15.101Z,48.50
2022-07-26T18:06:01.063Z,52.10
2022-07-26T18:08:47.208Z,50.10
2022-07-26T18:11:33.167Z,48.80
2022-07-26T18:14:18.681Z,48.60
2022-07-26T18:17:04.186Z,49.50
2022-07-26T18:19:49.856Z,48.90
2022-07-26T18:22:35.618Z,50.10
2022-07-26T18:25:21.240Z,50.40
2022-07-26T18:28:07.405Z,48.30
2022-07-26T18:30:53.140Z,48.70
2022-07-26T18:33:38.626Z,48.80
2022-07-26T18:36:24.359Z,49.60
2022-07-26T18:39:10.323Z,49.70
2022-07-26T18:41:56.270Z,49.30
2022-07-26T18:44:41.831Z,49.40
2022-07-26T18:47:27.458Z,49.30
2022-07-26T18:50:13.123Z,50.30
2022-07-26T18:53:03.083Z,49.00
2022-07-26T18:55:49.099Z,49.50
2022-07-26T18:58:35.015Z,49.70
2022-07-26T19:01:20.617Z,49.50
2022-07-26T19:04:07.266Z,49.90
2022-07-26T19:06:53.227Z,49.40
2022-07-26T19:09:39.144Z,50.90
2022-07-26T19:12:24.720Z,49.70
2022-07-26T19:15:10.997Z,50.10
2022-07-26T19:17:56.750Z,49.40
2022-07-26T19:20:45.713Z,49.60
2022-07-26T19:23:31.528Z,49.60
2022-07-26T19:26:17.435Z,50.20
2022-07-26T19:29:03.078Z,49.90
2022-07-26T19:31:48.924Z,50.20
2022-07-26T19:34:34.937Z,50.80
2022-07-26T19:37:21.494Z,51.00
2022-07-26T19:40:07.819Z,52.30
2022-07-26T19:42:53.290Z,51.00
2022-07-26T19:45:39.922Z,51.30
2022-07-26T19:48:25.858Z,52.20
2022-07-26T19:51:11.310Z,52.50
2022-07-26T19:53:57.067Z,53.80
2022-07-26T19:56:42.852Z,53.70
2022-07-26T19:59:28.658Z,53.60
2022-07-26T20:02:14.754Z,54.60
2022-07-26T20:05:00.444Z,54.60
2022-07-26T20:07:47.879Z,53.20
2022-07-26T20:10:33.863Z,53.50
2022-07-26T20:13:19.428Z,53.80
2022-07-26T20:16:05.597Z,53.20
2022-07-26T20:18:51.062Z,53.00
2022-07-26T20:21:36.540Z,54.40
2022-07-26T20:24:22.288Z,53.80
2022-07-26T20:27:08.113Z,54.20
2022-07-26T20:29:58.794Z,54.50
2022-07-26T20:32:46.317Z,54.80
2022-07-26T20:35:32.172Z,54.20
2022-07-26T20:38:20.643Z,54.50
2022-07-26T20:41:07.156Z,54.80
2022-07-26T20:43:53.545Z,55.00
2022-07-26T20:46:42.542Z,55.50
2022-07-26T20:49:28.157Z,55.50
2022-07-26T20:52:14.211Z,55.60
2022-07-26T20:55:00.353Z,56.20
2022-07-26T20:57:47.613Z,56.50
2022-07-26T21:00:33.164Z,56.30
2022-07-26T21:03:18.708Z,56.40
2022-07-26T21:06:04.401Z,56.40
2022-07-26T21:08:50.468Z,56.20
2022-07-26T21:11:36.099Z,56.70
2022-07-26T21:14:22.677Z,57.70
2022-07-26T21:17:11.840Z,57.80
2022-07-26T21:19:58.896Z,58.50
2022-07-26T21:22:44.842Z,59.00
2022-07-26T21:25:30.356Z,59.30
2022-07-26T21:28:17.884Z,59.90
2022-07-26T21:31:03.646Z,60.30
2022-07-26T21:33:49.234Z,61.20
2022-07-26T21:36:37.988Z,60.70
2022-07-26T21:39:23.741Z,61.20
2022-07-26T21:42:10.394Z,61.90
2022-07-26T21:44:55.729Z,62.40
2022-07-26T21:47:41.363Z,63.30
2022-07-26T21:50:27.074Z,63.90
2022-07-26T21:53:12.662Z,62.90
2022-07-26T21:55:58.464Z,64.60
2022-07-26T21:58:44.194Z,64.30
2022-07-26T22:01:32.617Z,65.70
2022-07-26T22:04:18.152Z,65.10
2022-07-26T22:07:03.791Z,65.80
2022-07-26T22:09:52.502Z,66.20
2022-07-26T22:12:38.178Z,66.40
2022-07-26T22:15:23.798Z,67.20
2022-07-26T22:18:09.909Z,66.40
2022-07-26T22:20:56.441Z,66.50
2022-07-26T22:23:42.244Z,67.10
2022-07-26T22:26:31.200Z,67.40
2022-07-26T22:29:16.996Z,68.00
2022-07-26T22:32:02.469Z,68.80
2022-07-26T22:34:48.130Z,70.10
2022-07-26T22:37:33.679Z,69.60
2022-07-26T22:40:20.095Z,69.70
2022-07-26T22:43:06.251Z,69.10
2022-07-26T22:45:52.042Z,69.20
2022-07-26T22:48:38.979Z,69.00
2022-07-26T22:51:25.187Z,69.30
2022-07-26T22:54:10.983Z,69.50
2022-07-26T22:56:56.723Z,70.00
2022-07-26T22:59:42.406Z,70.30
2022-07-26T23:02:28.038Z,70.30
2022-07-26T23:05:13.788Z,71.00
2022-07-26T23:08:03.625Z,71.40
2022-07-26T23:10:49.739Z,71.30
2022-07-26T23:13:35.324Z,71.10
2022-07-26T23:16:20.718Z,71.60
2022-07-26T23:19:08.790Z,72.60
2022-07-26T23:21:54.925Z,71.90
2022-07-26T23:24:40.489Z,72.50
2022-07-26T23:27:29.123Z,72.50
2022-07-26T23:30:14.818Z,72.50
2022-07-26T23:33:00.564Z,72.10
2022-07-26T23:35:46.111Z,72.00
2022-07-26T23:38:31.483Z,72.20
2022-07-26T23:41:17.269Z,72.50
2022-07-26T23:44:03.170Z,72.80
2022-07-26T23:46:48.794Z,73.20
2022-07-26T23:49:34.253Z,73.30
2022-07-26T23:52:19.672Z,73.20
2022-07-26T23:55:05.452Z,73.30
2022-07-26T23:57:50.886Z,73.10
